createdAt,value
2017-12-06T00:01:42.670Z,102260.64
2017-12-06T00:04:08.440Z,102261.09
2017-12-06T00:06:34.227Z,102259.73
2017-12-06T00:08:59.965Z,102256.64
2017-12-06T00:11:25.715Z,102265.89
2017-12-06T00:13:57.562Z,102256.69
2017-12-06T00:16:23.311Z,102253.58
2017-12-06T00:18:49.076Z,102258.84
2017-12-06T00:21:14.848Z,102266.77
2017-12-06T00:23:40.612Z,102266.75
2017-12-06T00:26:06.408Z,102261.94
2017-12-06T00:28:32.159Z,102267.22
2017-12-06T00:30:57.924Z,102256.67
2017-12-06T00:33:23.690Z,102252.28
2017-12-06T00:35:49.454Z,102259.27
2017-12-06T00:38:15.211Z,102264.53
2017-12-06T00:40:40.986Z,102249.56
2017-12-06T00:43:06.749Z,102251.77
2017-12-06T00:45:32.531Z,102247.82
2017-12-06T00:47:58.284Z,102237.23
2017-12-06T00:50:24.042Z,102249.59
2017-12-06T00:52:49.855Z,102246.53
2017-12-06T00:55:15.587Z,102238.15
2017-12-06T00:57:41.349Z,102237.70
2017-12-06T01:00:07.123Z,102246.91
2017-12-06T01:02:32.888Z,102247.82
2017-12-06T01:04:58.641Z,102244.70
2017-12-06T01:07:24.403Z,102250.89
2017-12-06T01:09:50.158Z,102261.00
2017-12-06T01:12:16.537Z,102255.72
2017-12-06T01:14:42.710Z,102261.02
2017-12-06T01:17:08.517Z,102249.58
2017-12-06T01:19:34.256Z,102255.73
2017-12-06T01:22:00.031Z,102260.57
2017-12-06T01:24:25.796Z,102246.52
2017-12-06T01:26:51.571Z,102250.45
2017-12-06T01:29:17.319Z,102254.38
2017-12-06T01:31:43.075Z,102255.27
2017-12-06T01:34:08.831Z,102246.48
2017-12-06T01:36:34.593Z,102238.54
2017-12-06T01:39:00.372Z,102241.62
2017-12-06T01:41:26.122Z,102243.74
2017-12-06T01:43:51.904Z,102258.22
2017-12-06T01:46:17.652Z,102252.53
2017-12-06T01:48:43.407Z,102248.58
2017-12-06T01:51:09.173Z,102242.35
2017-12-06T01:53:34.926Z,102233.98
2017-12-06T01:56:00.687Z,102232.64
2017-12-06T01:58:27.977Z,102235.75
2017-12-06T02:00:53.759Z,102234.38
2017-12-06T02:03:19.515Z,102232.13
2017-12-06T02:05:45.298Z,102228.14
2017-12-06T02:08:11.051Z,102233.89
2017-12-06T02:10:36.821Z,102231.24
2017-12-06T02:13:02.590Z,102223.30
2017-12-06T02:15:28.376Z,102217.55
2017-12-06T02:17:54.145Z,102225.01
2017-12-06T02:20:19.921Z,102215.85
2017-12-06T02:22:45.675Z,102217.16
2017-12-06T02:25:11.460Z,102213.16
2017-12-06T02:27:37.224Z,102208.77
2017-12-06T02:30:02.985Z,102207.86
2017-12-06T02:32:28.741Z,102204.02
2017-12-06T02:34:54.506Z,102202.68
2017-12-06T02:37:20.260Z,102196.05
2017-12-06T02:39:58.430Z,102199.99
2017-12-06T02:42:36.661Z,102186.84
2017-12-06T02:45:14.862Z,102192.55
2017-12-06T02:47:40.617Z,102189.50
2017-12-06T02:50:06.400Z,102191.56
2017-12-06T02:52:32.192Z,102178.41
2017-12-06T02:54:57.933Z,102177.14
2017-12-06T02:57:23.683Z,102181.03
2017-12-06T02:59:49.465Z,102175.80
2017-12-06T03:02:15.225Z,102164.42
2017-12-06T03:04:40.995Z,102156.91
2017-12-06T03:07:06.758Z,102151.59
2017-12-06T03:09:32.524Z,102143.74
2017-12-06T03:11:58.283Z,102141.04
2017-12-06T03:14:24.052Z,102126.54
2017-12-06T03:16:49.807Z,102123.92
2017-12-06T03:19:15.576Z,102119.11
2017-12-06T03:21:41.329Z,102115.16
2017-12-06T03:24:07.075Z,102111.19
2017-12-06T03:26:32.847Z,102106.77
2017-12-06T03:28:58.606Z,102111.16
2017-12-06T03:31:24.371Z,102098.42
2017-12-06T03:33:50.128Z,102101.52
2017-12-06T03:36:15.894Z,102105.47
2017-12-06T03:38:41.647Z,102099.31
2017-12-06T03:41:07.408Z,102110.69
2017-12-06T03:43:33.169Z,102096.73
2017-12-06T03:45:58.941Z,102095.75
2017-12-06T03:48:24.716Z,102089.18
2017-12-06T03:50:50.479Z,102094.06
2017-12-06T03:53:16.243Z,102094.88
2017-12-06T03:55:41.989Z,102091.87
2017-12-06T03:58:07.768Z,102084.84
2017-12-06T04:00:33.500Z,102086.61
2017-12-06T04:02:59.261Z,102098.39
2017-12-06T04:05:25.081Z,102089.21
2017-12-06T04:07:50.802Z,102091.80
2017-12-06T04:10:16.547Z,102089.22
2017-12-06T04:12:42.306Z,102094.92
2017-12-06T04:15:08.084Z,102088.85
2017-12-06T04:17:33.852Z,102098.42
2017-12-06T04:19:59.620Z,102090.08
2017-12-06T04:22:25.395Z,102100.60
2017-12-06T04:24:51.164Z,102096.70
2017-12-06T04:27:16.933Z,102103.72
2017-12-06T04:29:42.696Z,102105.41
2017-12-06T04:32:08.473Z,102106.34
2017-12-06T04:34:34.254Z,102107.66
2017-12-06T04:37:00.023Z,102100.64
2017-12-06T04:39:25.805Z,102093.18
2017-12-06T04:41:51.576Z,102093.59
2017-12-06T04:44:17.341Z,102098.84
2017-12-06T04:46:43.103Z,102092.70
2017-12-06T04:49:08.889Z,102100.20
2017-12-06T04:51:34.663Z,102102.41
2017-12-06T04:54:00.423Z,102091.01
2017-12-06T04:56:26.202Z,102098.44
2017-12-06T04:58:51.975Z,102096.73
2017-12-06T05:01:17.738Z,102094.05
2017-12-06T05:03:43.523Z,102096.72
2017-12-06T05:06:09.272Z,102101.09
2017-12-06T05:08:35.048Z,102098.94
2017-12-06T05:11:00.796Z,102104.60
2017-12-06T05:13:26.568Z,102102.41
2017-12-06T05:15:52.360Z,102098.05
2017-12-06T05:18:18.106Z,102100.22
2017-12-06T05:20:43.883Z,102100.67
2017-12-06T05:23:09.622Z,102100.25
2017-12-06T05:25:35.424Z,102097.63
2017-12-06T05:28:01.191Z,102096.28
2017-12-06T05:30:26.976Z,102087.49
2017-12-06T05:32:52.734Z,102089.67
2017-12-06T05:35:18.509Z,102089.25
2017-12-06T05:37:44.265Z,102089.20
2017-12-06T05:40:10.039Z,102086.56
2017-12-06T05:42:35.807Z,102091.00
2017-12-06T05:45:01.563Z,102089.67
2017-12-06T05:47:27.318Z,102091.90
2017-12-06T05:49:53.095Z,102086.14
2017-12-06T05:52:25.939Z,102085.25
2017-12-06T05:54:51.703Z,102090.53
2017-12-06T05:57:17.455Z,102080.03
2017-12-06T05:59:43.251Z,102088.35
2017-12-06T06:02:09.015Z,102089.23
2017-12-06T06:04:34.792Z,102093.19
2017-12-06T06:07:00.547Z,102078.30
2017-12-06T06:09:26.326Z,102085.74
2017-12-06T06:11:52.087Z,102075.23
2017-12-06T06:14:17.856Z,102080.95
2017-12-06T06:16:43.624Z,102077.49
2017-12-06T06:19:09.383Z,102081.36
2017-12-06T06:21:35.155Z,102080.50
2017-12-06T06:24:00.931Z,102076.55
2017-12-06T06:26:26.704Z,102078.72
2017-12-06T06:28:52.467Z,102067.74
2017-12-06T06:31:18.235Z,102065.98
2017-12-06T06:33:43.986Z,102067.78
2017-12-06T06:36:09.761Z,102069.05
2017-12-06T06:38:35.521Z,102064.63
2017-12-06T06:41:01.308Z,102063.78
2017-12-06T06:43:27.047Z,102074.33
2017-12-06T06:45:52.818Z,102073.00
2017-12-06T06:48:18.576Z,102073.01
2017-12-06T06:50:44.327Z,102076.96
2017-12-06T06:53:10.111Z,102076.53
2017-12-06T06:55:35.846Z,102080.50
2017-12-06T06:58:01.617Z,102080.91
2017-12-06T07:00:27.380Z,102087.12
2017-12-06T07:02:53.157Z,102084.03
2017-12-06T07:05:18.907Z,102082.31
2017-12-06T07:07:44.684Z,102091.05
2017-12-06T07:10:10.433Z,102092.84
2017-12-06T07:12:36.195Z,102089.75
2017-12-06T07:15:01.976Z,102076.16
2017-12-06T07:17:27.741Z,102078.34
2017-12-06T07:19:53.518Z,102073.98
2017-12-06T07:22:19.281Z,102084.08
2017-12-06T07:24:45.035Z,102089.34
2017-12-06T07:27:10.821Z,102082.36
2017-12-06T07:29:36.572Z,102071.80
2017-12-06T07:32:02.364Z,102076.19
2017-12-06T07:34:28.134Z,102073.55
2017-12-06T07:36:53.911Z,102064.34
2017-12-06T07:39:19.683Z,102069.14
2017-12-06T07:41:45.447Z,102064.33
2017-12-06T07:44:11.223Z,102074.88
2017-12-06T07:46:36.967Z,102063.04
2017-12-06T07:49:02.753Z,102062.59
2017-12-06T07:51:28.500Z,102064.74
2017-12-06T07:53:54.271Z,102059.92
2017-12-06T07:56:20.038Z,102060.37
2017-12-06T07:58:45.875Z,102054.20
2017-12-06T08:01:11.631Z,102054.27
2017-12-06T08:03:37.424Z,102055.16
2017-12-06T08:06:03.174Z,102056.03
2017-12-06T08:08:28.939Z,102052.55
2017-12-06T08:10:54.688Z,102049.48
2017-12-06T08:13:20.468Z,102046.84
2017-12-06T08:15:46.220Z,102045.10
2017-12-06T08:18:12.009Z,102046.44
2017-12-06T08:20:37.777Z,102051.29
2017-12-06T08:23:03.552Z,102047.77
2017-12-06T08:25:29.327Z,102062.26
2017-12-06T08:27:55.089Z,102058.73
2017-12-06T08:30:20.876Z,102059.20
2017-12-06T08:32:46.628Z,102043.39
2017-12-06T08:35:12.415Z,102052.63
2017-12-06T08:37:38.186Z,102056.58
2017-12-06T08:40:03.960Z,102050.00
2017-12-06T08:42:29.741Z,102058.33
2017-12-06T08:44:55.523Z,102064.02
2017-12-06T08:47:21.303Z,102062.28
2017-12-06T08:49:47.072Z,102066.69
2017-12-06T08:52:12.836Z,102057.47
2017-12-06T08:54:38.609Z,102057.45
2017-12-06T08:57:04.381Z,102053.12
2017-12-06T08:59:30.157Z,102057.95
2017-12-06T09:01:55.912Z,102047.41
2017-12-06T09:04:21.697Z,102061.47
2017-12-06T09:06:47.468Z,102058.81
2017-12-06T09:09:13.240Z,102053.16
2017-12-06T09:11:39.012Z,102062.34
2017-12-06T09:14:04.782Z,102060.59
2017-12-06T09:16:30.563Z,102061.48
2017-12-06T09:18:56.316Z,102056.66
2017-12-06T09:21:22.071Z,102056.68
2017-12-06T09:23:47.836Z,102061.07
2017-12-06T09:26:13.621Z,102058.86
2017-12-06T09:28:39.377Z,102047.90
2017-12-06T09:31:05.144Z,102058.89
2017-12-06T09:33:30.905Z,102058.45
2017-12-06T09:35:56.669Z,102058.89
2017-12-06T09:38:22.426Z,102054.05
2017-12-06T09:40:48.183Z,102061.09
2017-12-06T09:43:13.972Z,102058.46
2017-12-06T09:45:39.760Z,102062.00
2017-12-06T09:48:05.523Z,102053.22
2017-12-06T09:50:31.280Z,102049.72
2017-12-06T09:52:57.062Z,102051.91
2017-12-06T09:55:22.822Z,102050.14
2017-12-06T09:57:48.595Z,102051.05
2017-12-06T10:00:14.353Z,102049.73
2017-12-06T10:02:40.123Z,102039.17
2017-12-06T10:05:12.935Z,102044.45
2017-12-06T10:07:38.708Z,102044.50
2017-12-06T10:10:04.476Z,102051.52
2017-12-06T10:12:30.247Z,102054.59
2017-12-06T10:14:56.012Z,102052.41
2017-12-06T10:17:21.784Z,102057.70
2017-12-06T10:19:47.555Z,102044.94
2017-12-06T10:22:13.322Z,102045.84
2017-12-06T10:24:39.100Z,102047.59
2017-12-06T10:27:04.876Z,102044.52
2017-12-06T10:29:30.644Z,102042.75
2017-12-06T10:31:56.420Z,102051.55
2017-12-06T10:34:22.189Z,102054.63
2017-12-06T10:36:47.943Z,102058.16
2017-12-06T10:39:13.711Z,102055.95
2017-12-06T10:41:39.494Z,102055.96
2017-12-06T10:44:05.275Z,102065.62
2017-12-06T10:46:31.015Z,102052.90
2017-12-06T10:48:56.791Z,102055.52
2017-12-06T10:51:22.552Z,102062.56
2017-12-06T10:53:48.335Z,102059.48
2017-12-06T10:56:14.105Z,102059.48
2017-12-06T10:58:39.871Z,102062.98
2017-12-06T11:01:05.642Z,102050.67
2017-12-06T11:03:31.405Z,102054.63
2017-12-06T11:05:57.228Z,102042.78
2017-12-06T11:08:22.962Z,102041.04
2017-12-06T11:10:48.726Z,102045.84
2017-12-06T11:13:14.508Z,102034.42
2017-12-06T11:15:40.281Z,102034.42
2017-12-06T11:18:06.036Z,102038.41
2017-12-06T11:20:31.812Z,102034.88
2017-12-06T11:22:57.572Z,102031.36
2017-12-06T11:25:23.344Z,102030.48
2017-12-06T11:27:49.099Z,102024.30
2017-12-06T11:30:14.883Z,102013.77
2017-12-06T11:32:40.640Z,102022.57
2017-12-06T11:35:06.435Z,102020.36
2017-12-06T11:37:32.193Z,102016.41
2017-12-06T11:39:57.968Z,102026.53
2017-12-06T11:42:23.736Z,102020.36
2017-12-06T11:44:49.510Z,102012.00
2017-12-06T11:47:15.338Z,102014.66
2017-12-06T11:49:41.099Z,102010.70
2017-12-06T11:52:06.863Z,102007.16
2017-12-06T11:54:32.632Z,102013.34
2017-12-06T11:56:58.405Z,102004.10
2017-12-06T11:59:24.162Z,102007.61
2017-12-06T12:01:49.939Z,102012.88
2017-12-06T12:04:15.693Z,102004.08
2017-12-06T12:06:41.463Z,102006.73
2017-12-06T12:09:07.224Z,102004.09
2017-12-06T12:11:33.018Z,101998.36
2017-12-06T12:13:58.764Z,101999.24
2017-12-06T12:16:24.533Z,102000.58
2017-12-06T12:18:50.325Z,101996.15
2017-12-06T12:21:16.092Z,101993.08
2017-12-06T12:23:41.873Z,101997.91
2017-12-06T12:26:07.639Z,101997.91
2017-12-06T12:28:33.416Z,101998.78
2017-12-06T12:30:59.172Z,102003.19
2017-12-06T12:33:24.958Z,102005.85
2017-12-06T12:35:50.715Z,102007.60
2017-12-06T12:38:16.518Z,102008.05
2017-12-06T12:40:42.272Z,102011.56
2017-12-06T12:43:08.056Z,102012.02
2017-12-06T12:45:33.811Z,102003.66
2017-12-06T12:47:59.591Z,101998.36
2017-12-06T12:50:25.366Z,101996.17
2017-12-06T12:52:51.138Z,102005.84
2017-12-06T12:55:16.924Z,102006.30
2017-12-06T12:57:42.687Z,102000.55
2017-12-06T13:00:08.462Z,102005.85
2017-12-06T13:02:34.223Z,102001.01
2017-12-06T13:05:00.004Z,102007.62
2017-12-06T13:07:25.776Z,102003.19
2017-12-06T13:09:51.561Z,102001.90
2017-12-06T13:12:17.333Z,102006.28
2017-12-06T13:14:43.130Z,102010.25
2017-12-06T13:17:08.933Z,102008.92
2017-12-06T13:19:34.733Z,102008.06
2017-12-06T13:22:00.493Z,102008.06
2017-12-06T13:24:26.288Z,102010.25
2017-12-06T13:26:52.088Z,102006.74
2017-12-06T13:29:17.852Z,101999.25
2017-12-06T13:31:43.629Z,102004.52
2017-12-06T13:34:09.387Z,102002.32
2017-12-06T13:36:35.185Z,102002.77
2017-12-06T13:39:00.962Z,101992.64
2017-12-06T13:41:26.748Z,101996.17
2017-12-06T13:43:52.548Z,101997.05
2017-12-06T13:46:18.321Z,101991.34
2017-12-06T13:48:44.087Z,101983.88
2017-12-06T13:51:09.895Z,101997.94
2017-12-06T13:53:35.659Z,101993.11
2017-12-06T13:56:01.443Z,101979.45
2017-12-06T13:58:27.233Z,101985.18
2017-12-06T14:00:53.016Z,101993.53
2017-12-06T14:03:18.785Z,102001.02
2017-12-06T14:05:44.576Z,101991.34
2017-12-06T14:08:10.333Z,101984.33
2017-12-06T14:10:36.116Z,101980.34
2017-12-06T14:13:01.902Z,101986.05
2017-12-06T14:15:27.688Z,101990.45
2017-12-06T14:17:53.468Z,101982.56
2017-12-06T14:20:19.223Z,101985.64
2017-12-06T14:22:45.027Z,101985.64
2017-12-06T14:25:10.805Z,101979.45
2017-12-06T14:27:36.612Z,101978.59
2017-12-06T14:30:02.380Z,101981.67
2017-12-06T14:32:28.165Z,101986.05
2017-12-06T14:34:53.943Z,101980.80
2017-12-06T14:37:19.719Z,101995.30
2017-12-06T14:39:45.484Z,101993.98
2017-12-06T14:42:11.252Z,101990.02
2017-12-06T14:44:37.032Z,101996.61
2017-12-06T14:47:02.795Z,101997.06
2017-12-06T14:49:28.576Z,101991.79
2017-12-06T14:51:54.351Z,101994.41
2017-12-06T14:54:20.127Z,101992.65
2017-12-06T14:56:45.924Z,102003.64
2017-12-06T14:59:11.700Z,101993.09
2017-12-06T15:01:37.469Z,101996.19
2017-12-06T15:04:03.244Z,101992.23
2017-12-06T15:06:29.017Z,101987.38
2017-12-06T15:08:54.796Z,101986.52
2017-12-06T15:11:20.562Z,101976.39
2017-12-06T15:13:46.349Z,101976.83
2017-12-06T15:16:12.150Z,101990.03
2017-12-06T15:18:37.948Z,101978.61
2017-12-06T15:21:03.715Z,101977.73
2017-12-06T15:23:29.489Z,101978.16
2017-12-06T15:25:55.284Z,101981.69
2017-12-06T15:28:21.072Z,101979.05
2017-12-06T15:30:46.844Z,101978.14
2017-12-06T15:33:12.639Z,101971.55
2017-12-06T15:35:38.425Z,101958.36
2017-12-06T15:38:04.199Z,101968.88
2017-12-06T15:40:30.008Z,101968.47
2017-12-06T15:42:55.784Z,101968.89
2017-12-06T15:45:22.372Z,101968.00
2017-12-06T15:47:48.152Z,101964.05
2017-12-06T16:00:53.606Z,101935.09
2017-12-06T16:03:19.574Z,101934.77
2017-12-06T16:05:45.379Z,101928.98
2017-12-06T16:08:11.170Z,101936.38
2017-12-06T16:10:36.935Z,101923.89
2017-12-06T16:13:02.744Z,101923.84
2017-12-06T16:15:28.535Z,101920.15
2017-12-06T16:17:54.331Z,101921.45
2017-12-06T16:20:20.139Z,101917.46
2017-12-06T16:22:45.939Z,101917.92
2017-12-06T16:25:11.700Z,101911.73
2017-12-06T16:27:37.467Z,101909.50
2017-12-06T16:30:03.223Z,101919.59
2017-12-06T16:32:28.997Z,101909.92
2017-12-06T16:35:07.281Z,101912.51
2017-12-06T16:37:33.034Z,101909.42
2017-12-06T16:39:58.821Z,101924.39
2017-12-06T16:42:24.595Z,101914.27
2017-12-06T16:44:50.358Z,101920.42
2017-12-06T16:47:16.123Z,101913.36
2017-12-06T16:49:41.931Z,101915.97
2017-12-06T16:52:07.696Z,101917.25
2017-12-06T16:54:33.508Z,101907.87
2017-12-06T16:56:59.268Z,101908.76
2017-12-06T16:59:25.031Z,101910.08
2017-12-06T17:01:50.800Z,101908.73
2017-12-06T17:04:16.562Z,101907.42
2017-12-06T17:06:42.360Z,101904.33
2017-12-06T17:09:08.099Z,101895.50
2017-12-06T17:11:33.861Z,101892.39
2017-12-06T17:13:59.635Z,101891.56
2017-12-06T17:16:25.395Z,101894.67
2017-12-06T17:18:51.196Z,101888.45
2017-12-06T17:21:16.976Z,101887.13
2017-12-06T17:23:42.759Z,101889.33
2017-12-06T17:26:08.563Z,101893.73
2017-12-06T17:28:46.795Z,101888.42
2017-12-06T17:31:25.020Z,101886.22
2017-12-06T17:33:50.806Z,101885.00
2017-12-06T17:36:16.580Z,101887.10
2017-12-06T17:38:42.348Z,101888.87
2017-12-06T17:41:08.127Z,101887.56
2017-12-06T17:43:33.909Z,101882.79
2017-12-06T17:45:59.676Z,101878.34
2017-12-06T17:48:25.475Z,101883.55
2017-12-06T17:50:51.220Z,101885.74
2017-12-06T17:53:16.996Z,101880.01
2017-12-06T17:55:42.759Z,101885.81
2017-12-06T17:58:08.563Z,101885.81
2017-12-06T18:00:34.319Z,101888.89
2017-12-06T18:03:00.057Z,101886.27
2017-12-06T18:05:25.851Z,101878.27
2017-12-06T18:07:51.621Z,101884.12
2017-12-06T18:10:17.396Z,101877.93
2017-12-06T18:12:43.291Z,101881.84
2017-12-06T18:15:10.302Z,101863.44
2017-12-06T18:17:37.476Z,101879.23
2017-12-06T18:20:03.262Z,101875.20
2017-12-06T18:22:29.172Z,101876.97
2017-12-06T18:24:55.216Z,101874.75
2017-12-06T18:27:21.063Z,101871.20
2017-12-06T18:29:46.887Z,101876.50
2017-12-06T18:32:12.966Z,101872.11
2017-12-06T18:34:38.788Z,101866.38
2017-12-06T18:37:04.539Z,101868.55
2017-12-06T18:39:30.399Z,101861.91
2017-12-06T18:41:56.196Z,101863.64
2017-12-06T18:44:21.991Z,101859.17
2017-12-06T18:46:47.999Z,101861.83
2017-12-06T18:49:13.772Z,101864.86
2017-12-06T18:51:39.864Z,101856.00
2017-12-06T18:54:05.651Z,101849.80
2017-12-06T18:56:32.733Z,101851.92
2017-12-06T18:58:58.566Z,101848.91
2017-12-06T19:01:24.607Z,101844.54
2017-12-06T19:03:50.364Z,101828.84
2017-12-06T19:06:16.128Z,101854.57
2017-12-06T19:08:41.883Z,101852.76
2017-12-06T19:11:07.646Z,101854.06
2017-12-06T19:13:33.407Z,101852.28
2017-12-06T19:15:59.166Z,101846.61
2017-12-06T19:18:24.908Z,101864.75
2017-12-06T19:20:50.654Z,101847.57
2017-12-06T19:23:16.419Z,101840.10
2017-12-06T19:25:42.183Z,101844.18
2017-12-06T19:28:07.960Z,101838.48
2017-12-06T19:30:33.714Z,101828.88
2017-12-06T19:32:59.484Z,101832.50
2017-12-06T19:35:25.243Z,101829.40
2017-12-06T19:37:51.015Z,101829.33
2017-12-06T19:40:16.792Z,101821.35
2017-12-06T19:42:42.569Z,101816.95
2017-12-06T19:45:08.360Z,101820.95
2017-12-06T19:47:34.130Z,101819.64
2017-12-06T19:49:59.887Z,101817.48
2017-12-06T19:52:25.650Z,101816.11
2017-12-06T19:54:51.411Z,101823.16
2017-12-06T19:57:17.200Z,101807.70
2017-12-06T19:59:42.936Z,101818.78
2017-12-06T20:02:08.684Z,101810.86
2017-12-06T20:04:34.452Z,101806.02
2017-12-06T20:07:00.219Z,101807.81
2017-12-06T20:09:25.996Z,101802.98
2017-12-06T20:11:51.758Z,101806.95
2017-12-06T20:14:17.569Z,101799.46
2017-12-06T20:16:43.318Z,101801.67
2017-12-06T20:19:09.105Z,101793.69
2017-12-06T20:21:34.859Z,101802.52
2017-12-06T20:24:00.627Z,101796.31
2017-12-06T20:26:26.424Z,101789.25
2017-12-06T20:28:52.188Z,101788.80
2017-12-06T20:31:17.940Z,101787.15
2017-12-06T20:33:50.794Z,101792.00
2017-12-06T20:36:16.570Z,101787.13
2017-12-06T20:38:42.339Z,101782.25
2017-12-06T20:41:08.116Z,101783.07
2017-12-06T20:43:33.895Z,101783.07
2017-12-06T20:45:59.673Z,101782.60
2017-12-06T20:48:25.428Z,101784.91
2017-12-06T20:50:51.195Z,101786.16
2017-12-06T20:53:16.967Z,101776.41
2017-12-06T20:55:42.862Z,101779.03
2017-12-06T20:58:08.608Z,101777.78
2017-12-06T21:00:34.379Z,101778.59
2017-12-06T21:03:00.152Z,101767.06
2017-12-06T21:05:25.927Z,101767.45
2017-12-06T21:07:51.701Z,101769.23
2017-12-06T21:10:17.484Z,101766.68
2017-12-06T21:12:43.256Z,101773.32
2017-12-06T21:15:09.039Z,101768.02
2017-12-06T21:17:34.895Z,101765.00
2017-12-06T21:20:00.623Z,101760.14
2017-12-06T21:22:26.504Z,101764.53
2017-12-06T21:24:52.275Z,101761.84
2017-12-06T21:27:18.083Z,101758.34
2017-12-06T21:29:43.847Z,101754.45
2017-12-06T21:32:09.733Z,101760.16
2017-12-06T21:34:35.487Z,101761.53
2017-12-06T21:37:01.263Z,101752.70
2017-12-06T21:39:27.255Z,101757.56
2017-12-06T21:41:53.137Z,101738.66
2017-12-06T21:44:18.887Z,101751.40
2017-12-06T21:46:45.724Z,101742.11
2017-12-06T21:49:11.494Z,101740.80
2017-12-06T21:51:37.260Z,101736.38
2017-12-06T21:54:03.129Z,101730.64
2017-12-06T21:56:28.887Z,101734.67
2017-12-06T21:58:54.721Z,101722.77
2017-12-06T22:01:20.723Z,101725.31
2017-12-06T22:03:46.518Z,101726.61
2017-12-06T22:06:12.292Z,101721.34
2017-12-06T22:08:38.059Z,101718.27
2017-12-06T22:11:03.827Z,101724.00
2017-12-06T22:13:29.587Z,101712.08
2017-12-06T22:15:55.328Z,101711.59
2017-12-06T22:18:21.082Z,101703.65
2017-12-06T22:20:46.832Z,101704.95
2017-12-06T22:23:13.068Z,101698.00
2017-12-06T22:25:38.824Z,101702.06
2017-12-06T22:28:04.598Z,101700.30
2017-12-06T22:30:30.888Z,101699.48
2017-12-06T22:32:56.706Z,101696.88
2017-12-06T22:35:22.450Z,101694.16
2017-12-06T22:37:48.211Z,101692.81
2017-12-06T22:40:13.972Z,101690.21
2017-12-06T22:42:39.735Z,101686.30
2017-12-06T22:45:14.616Z,101677.51
2017-12-06T22:47:40.371Z,101677.53
2017-12-06T22:50:06.124Z,101671.82
2017-12-06T22:52:31.900Z,101681.88
2017-12-06T22:54:58.107Z,101680.52
2017-12-06T22:57:23.883Z,101664.25
2017-12-06T22:59:49.655Z,101665.97
2017-12-06T23:02:15.438Z,101669.53
2017-12-06T23:04:41.208Z,101662.53
2017-12-06T23:07:06.965Z,101665.29
2017-12-06T23:09:33.541Z,101660.00
2017-12-06T23:11:59.491Z,101654.28
2017-12-06T23:14:25.267Z,101645.97
2017-12-06T23:16:51.028Z,101649.89
2017-12-06T23:19:16.795Z,101644.61
2017-12-06T23:21:42.571Z,101638.48
2017-12-06T23:24:08.335Z,101634.52
2017-12-06T23:26:34.098Z,101626.63
2017-12-06T23:28:59.871Z,101629.20
2017-12-06T23:31:25.626Z,101634.91
2017-12-06T23:33:51.395Z,101619.90
2017-12-06T23:36:17.184Z,101623.41
2017-12-06T23:38:42.962Z,101614.14
2017-12-06T23:41:08.736Z,101622.52
2017-12-06T23:43:34.492Z,101612.41
2017-12-06T23:46:00.267Z,101612.95
2017-12-06T23:48:26.024Z,101610.72
2017-12-06T23:50:51.796Z,101599.28
2017-12-06T23:53:17.558Z,101591.25
2017-12-06T23:55:43.323Z,101586.40
2017-12-06T23:58:09.074Z,101581.96
